Welcome to our Virtual Airline
Sign-in:

Flight MFC36591

  • Submitted By: Igor Doksas
  • Departure Airport: Port Williams SPB (KPR)
  • Arrival Airport: Kitoi Bay SPB (KKB)
  • Aircraft: DHC2 BEAVERA (N002MM_AM)
  • Flight Time: 00.19.48
  • Date Submitted: 2018/11/06
  • Route: NO STOPS
  • Status: Accepted
Flight Details
Gross Revenue:
(5 load / $ 42.00 per unit
$ 210.00
Fuel Cost:
(30.3907 fuel used @ 5.1 / unit)
$ 154.99

Additional Log Information:

View Log

FS[09:53] ----- Flight Opened -----
FS[09:53] Cigar Box - 1.1.4.0
FS[09:53] FS: FSX
FS[09:53] FSUIPC: v4.966
FS[09:53] Flight Number: MFC36591
FS[09:53] FS Aircraft: DHC-2A Misty Moorings 3 Amph1
FS[09:53] FS Model: DHC2
FS[09:53] FS Type: DeHavilland
FS[09:53] Departure: KPR
FS[09:53] Arrival: KKB
FS[09:53] Flight Level: 3500
FS[09:53] Flight Type: H
FS[09:53] Passengers: 5
FS[09:53] FOB: 210 lbs
FS[09:53] Gate: n/a
FS[09:53] Crash Detection: Disabled
FS[09:53] Crash Detection Aircraft: Disabled
FS[09:53] Engines: 1 Piston
FS[09:53] NOTE: Boarding has started
FS[09:53] FS: Paused
FS[09:53] Parking Brake: Engaged
FS[09:53] Landing Gear: Retracted
FS[09:53] Main Door Open
FS[09:53] COM1: 128.30
FS[09:53] COM2: 127.80
FS[09:53] Transponder: 1200
FS[09:53] NAV1: 113.70
FS[09:53] NAV2: 110.60
FS[09:53] ADF1: 284.0
FS[09:53] ADF2: 240.0
FS[09:53] Navigation Mode: GPS
FS[09:53] Navigation Mode: GPS
FS[09:53] FS: Unpaused
FS[09:53] Main Door Closed
FS[09:53] Engine 1: Started
FS[09:53] Light Data: Beacon ON
FS[09:53] Light Data: Navigation ON
FS[09:53] Light Data: Landing lights ON
FS[09:54] Flaps: Position 2
FS[09:54] Parking Brake: Released
FS[09:54] NOTE: Taxi started
FS[09:54] NOTE: ----- TAKE OFF -----
FS[09:54] GS: 58 knots
FS[09:54] TAS: 59 knots
FS[09:54] IAS: 59 knots
FS[09:54] VS: 26 fpm
FS[09:54] FOB: 209 lbs
FS[09:54] Heading: 64°
FS[09:54] Pitch: 3°
FS[09:54] Bank: 0°
FS[09:54] Aircraft Weight: 3978.93 lbs
FS[09:54] Nearest Airport: KPR
FS[09:54] Distance: 0.67 miles
FS[09:54] Runway: ???
FS[09:54] Ground Surface: Water
FS[09:54] Ground Condition: Normal
FS[09:54] NOTE: ----- TAKE OFF -----
FS[09:54] NOTE: Weather Report
FS[09:54] Wind Heading: 344°
FS[09:54] Wind Speed: 0 knots
FS[09:54] OAT: 15° C
FS[09:54] TAT: 15° C
FS[09:54] Precipitation: None
FS[09:54] Dew Point: 5° C
FS[09:54] Visibility: 62 miles
FS[09:54] METAR: KPRB 052353Z AUTO 12008KT 10SM CLR 27/02 A2985 RMK AO2 SLP103 T02670022 10272 20161 55013KPRC 052353Z 24011KT 10SM CLR 18/M01 A2998 RMK AO2 SLP101 T01831011 10211 20172 56002KPRG 060035Z AUTO 12007KT 7SM RA BKN050 OVC070 10/09 A2973 RMK AO2 P0003 T01030092KPRN 060003Z AUTO 15003KT 10SM FEW019 SCT028 BKN036 23/19 A2995 RMK AO2 T02280194KPRO 060115Z AUTO 18005KT 5SM BR OVC004 08/08 A2954 RMK AO2 T00750075KPRS 060035Z AUTO 00000KT 10SM CLR 25/06 A2988 RMK AO2 T02450056KPRX 052356Z AUTO 17003KT 10SM CLR 18/17 A2975 RMK AO2 SLP088 6//// T01830167 10217 20161 53014
FS[09:54] GS: 60 knots
FS[09:54] TAS: 62 knots
FS[09:54] IAS: 62 knots
FS[09:54] VS: 49 fpm
FS[09:54] FOB: 209 lbs
FS[09:54] Heading: 66°
FS[09:54] Pitch: 3°
FS[09:54] Bank: 0°
FS[09:54] Aircraft Weight: 3979.74 lbs
FS[09:54] Nearest Airport: KPR
FS[09:54] Distance: 0.66 miles
FS[09:54] Runway: ???
FS[09:54] Ground Surface: Water
FS[09:54] Ground Condition: Normal
FS[09:54] NOTE: Weather Report
FS[09:54] Wind Heading: 344°
FS[09:54] Wind Speed: 0 knots
FS[09:54] OAT: 15° C
FS[09:54] TAT: 15° C
FS[09:54] Precipitation: None
FS[09:54] Dew Point: 5° C
FS[09:54] Visibility: 62 miles
FS[09:54] METAR: KPRB 052353Z AUTO 12008KT 10SM CLR 27/02 A2985 RMK AO2 SLP103 T02670022 10272 20161 55013KPRC 052353Z 24011KT 10SM CLR 18/M01 A2998 RMK AO2 SLP101 T01831011 10211 20172 56002KPRG 060035Z AUTO 12007KT 7SM RA BKN050 OVC070 10/09 A2973 RMK AO2 P0003 T01030092KPRN 060003Z AUTO 15003KT 10SM FEW019 SCT028 BKN036 23/19 A2995 RMK AO2 T02280194KPRO 060115Z AUTO 18005KT 5SM BR OVC004 08/08 A2954 RMK AO2 T00750075KPRS 060035Z AUTO 00000KT 10SM CLR 25/06 A2988 RMK AO2 T02450056KPRX 052356Z AUTO 17003KT 10SM CLR 18/17 A2975 RMK AO2 SLP088 6//// T01830167 10217 20161 53014
FS[09:54] NOTE: Climb started
FS[09:54] Flaps: Position 1
FS[09:54] GS: 71 knots
FS[09:54] TAS: 73 knots
FS[09:54] IAS: 73 knots
FS[09:54] VS: 476 fpm
FS[09:54] Autopilot: Engaged
FS[09:54] AGL: 147 ft
FS[09:54] AMSL: 147 ft
FS[09:54] View Mode: Virtual Cockpit
FS[09:54] Light Data: Landing lights OFF
FS[09:54] AGL: 469 ft
FS[09:54] AMSL: 469 ft
FS[09:54] Flaps: Position 0
FS[09:54] GS: 97 knots
FS[09:54] TAS: 98 knots
FS[09:54] IAS: 97 knots
FS[09:54] VS: 861 fpm
FS[09:55] Recovery: Flight Saved
FS[09:58] NOTE: TOC reached
FS[09:58] NOTE: Cruise started
FS[09:58] GS: 124 knots
FS[09:58] TAS: 123 knots
FS[09:58] IAS: 118 knots
FS[09:58] VS: 197 fpm
FS[09:58] FOB: 193 lbs
FS[09:58] Heading: 94°
FS[09:58] Pitch: 2°
FS[09:58] Bank: 0°
FS[09:58] Aircraft Weight: 3963.47 lbs
FS[09:59] Recovery: Flight Saved
FS[10:02] Recovery: Flight Saved
FS[10:05] Recovery: Flight Saved
FS[10:06] NOTE: TOD reached
FS[10:06] NOTE: Descent started
FS[10:06] GS: 153 knots
FS[10:06] TAS: 153 knots
FS[10:06] IAS: 147 knots
FS[10:06] VS: -783 fpm
FS[10:06] FOB: 161 lbs
FS[10:06] Heading: 177°
FS[10:06] Pitch: 3°
FS[10:06] Bank: 0°
FS[10:06] Aircraft Weight: 3931.40 lbs
FS[10:06] NOTE: On approach
FS[10:08] Light Data: Landing lights ON
FS[10:08] AGL: 1601 ft
FS[10:08] AMSL: 2644 ft
FS[10:08] Recovery: Flight Saved
FS[10:11] Flaps: Position 1
FS[10:11] GS: 103 knots
FS[10:11] TAS: 103 knots
FS[10:11] IAS: 101 knots
FS[10:11] VS: -494 fpm
FS[10:11] Flaps: Position 2
FS[10:11] GS: 89 knots
FS[10:11] TAS: 90 knots
FS[10:11] IAS: 88 knots
FS[10:11] VS: -159 fpm
FS[10:11] Flaps: Position 3
FS[10:11] GS: 81 knots
FS[10:11] TAS: 81 knots
FS[10:11] IAS: 80 knots
FS[10:11] VS: 169 fpm
FS[10:11] Recovery: Flight Saved
FS[10:13] Autopilot: Disengaged
FS[10:13] AGL: 72 ft
FS[10:13] AMSL: 72 ft
FS[10:13] NOTE: ----- LANDED -----
FS[10:13] Landing Rate: -116.11 fpm
FS[10:13] GS: 48 knots
FS[10:13] TAS: 48 knots
FS[10:13] IAS: 48 knots
FS[10:13] VS: -116 fpm
FS[10:13] FOB: 144 lbs
FS[10:13] Heading: 264°
FS[10:13] Pitch: 4°
FS[10:13] Bank: 0°
FS[10:13] Aircraft Weight: 3914.02 lbs
FS[10:13] Nearest Airport: KKB
FS[10:13] Distance: 0.60 miles
FS[10:13] Runway: ???
FS[10:13] Ground Surface: Water
FS[10:13] Ground Condition: Normal
FS[10:13] NOTE: Weather Report
FS[10:13] Wind Heading: 344°
FS[10:13] Wind Speed: 0 knots
FS[10:13] OAT: 14° C
FS[10:13] TAT: 15° C
FS[10:13] Precipitation: None
FS[10:13] Dew Point: 4° C
FS[10:13] Visibility: 62 miles
FS[10:13] METAR: No METAR available for KKB.
FS[10:13] View Mode: Virtual Cockpit
FS[10:13] Flaps: Position 0
FS[10:13] NOTE: Taxi started
FS[10:13] Light Data: Landing lights OFF
FS[10:14] Light Data: Navigation OFF
FS[10:14] Engine 1: Stopped
FS[10:14] NOTE: Arrived
FS[10:14] Parking Brake: Engaged
FS[10:14] Light Data: Beacon OFF
FS[10:14] Main Door Open
FS[10:14] Gate: n/a
FS[10:14] NOTE: Flight Completed
FS[10:14] FS Aircraft: DHC-2A Misty Moorings 3 Amph1
FS[10:14] FS Model: DHC2
FS[10:14] FS Type: DeHavilland
FS[10:14] FOB: 143 lbs
FS[10:14] Fuel Used: 67 lbs
FS[10:14] Flight Time: 00:19:48
FS[10:14] Flight Time (Dawn): 00:00:00
FS[10:14] Flight Time (Day): 00:19:48
FS[10:14] Flight Time (Dusk): 00:00:00
FS[10:14] Flight Time (Night): 00:00:00
FS[10:14] Total Landings: 1
FS[10:14] MaxSim Rate: 0x
FS[10:14] Cigar Box - 1.1.4.0
FS[10:14] ----- Flight Closed -----

Route Map